sensor_id;sensor_type;location;lat;lon;timestamp;temperature;humidity
71304;DHT22;59091;47.446;19.148;2023-07-24T00:01:53;24.58;61.78
71304;DHT22;59091;47.446;19.148;2023-07-24T00:04:19;24.56;61.92
71304;DHT22;59091;47.446;19.148;2023-07-24T00:06:44;24.56;62.12
71304;DHT22;59091;47.446;19.148;2023-07-24T00:09:09;24.51;62.14
71304;DHT22;59091;47.446;19.148;2023-07-24T00:11:35;24.44;62.39
71304;DHT22;59091;47.446;19.148;2023-07-24T00:14:00;24.45;62.46
71304;DHT22;59091;47.446;19.148;2023-07-24T00:16:26;24.41;62.55
71304;DHT22;59091;47.446;19.148;2023-07-24T00:18:51;24.47;62.40
71304;DHT22;59091;47.446;19.148;2023-07-24T00:21:17;24.48;62.41
71304;DHT22;59091;47.446;19.148;2023-07-24T00:23:42;24.52;62.37
71304;DHT22;59091;47.446;19.148;2023-07-24T00:26:07;24.52;62.47
71304;DHT22;59091;47.446;19.148;2023-07-24T00:28:33;24.48;62.49
71304;DHT22;59091;47.446;19.148;2023-07-24T00:30:58;24.45;62.72
71304;DHT22;59091;47.446;19.148;2023-07-24T00:33:24;24.44;63.03
71304;DHT22;59091;47.446;19.148;2023-07-24T00:35:49;24.39;62.97
71304;DHT22;59091;47.446;19.148;2023-07-24T00:38:15;24.39;63.01
71304;DHT22;59091;47.446;19.148;2023-07-24T00:40:40;24.36;63.07
71304;DHT22;59091;47.446;19.148;2023-07-24T00:43:06;24.32;63.16
71304;DHT22;59091;47.446;19.148;2023-07-24T00:45:31;24.34;63.05
71304;DHT22;59091;47.446;19.148;2023-07-24T00:47:58;24.32;63.21
71304;DHT22;59091;47.446;19.148;2023-07-24T00:50:24;24.36;63.14
71304;DHT22;59091;47.446;19.148;2023-07-24T00:52:50;24.41;63.10
71304;DHT22;59091;47.446;19.148;2023-07-24T00:55:16;24.47;63.00
71304;DHT22;59091;47.446;19.148;2023-07-24T00:57:42;24.44;62.96
71304;DHT22;59091;47.446;19.148;2023-07-24T01:00:09;24.54;62.95
71304;DHT22;59091;47.446;19.148;2023-07-24T01:02:35;24.48;62.94
71304;DHT22;59091;47.446;19.148;2023-07-24T01:05:01;24.61;62.77
71304;DHT22;59091;47.446;19.148;2023-07-24T01:07:26;24.58;62.98
71304;DHT22;59091;47.446;19.148;2023-07-24T01:09:52;24.62;62.70
71304;DHT22;59091;47.446;19.148;2023-07-24T01:12:23;24.71;62.68
71304;DHT22;59091;47.446;19.148;2023-07-24T01:15:16;24.73;62.33
71304;DHT22;59091;47.446;19.148;2023-07-24T01:17:46;24.75;62.57
71304;DHT22;59091;47.446;19.148;2023-07-24T01:20:15;24.75;62.90
71304;DHT22;59091;47.446;19.148;2023-07-24T01:25:56;24.68;63.09
71304;DHT22;59091;47.446;19.148;2023-07-24T01:28:22;24.66;62.93
71304;DHT22;59091;47.446;19.148;2023-07-24T01:30:48;24.69;63.01
71304;DHT22;59091;47.446;19.148;2023-07-24T01:33:13;24.69;63.04
71304;DHT22;59091;47.446;19.148;2023-07-24T01:35:41;24.72;62.99
71304;DHT22;59091;47.446;19.148;2023-07-24T01:38:09;24.72;63.09
71304;DHT22;59091;47.446;19.148;2023-07-24T01:40:35;24.66;63.18
71304;DHT22;59091;47.446;19.148;2023-07-24T01:43:01;24.69;63.15
71304;DHT22;59091;47.446;19.148;2023-07-24T01:45:27;24.75;63.04
71304;DHT22;59091;47.446;19.148;2023-07-24T01:47:52;24.73;63.22
71304;DHT22;59091;47.446;19.148;2023-07-24T01:50:18;24.69;63.54
71304;DHT22;59091;47.446;19.148;2023-07-24T01:52:43;24.72;63.45
71304;DHT22;59091;47.446;19.148;2023-07-24T01:55:10;24.71;63.54
71304;DHT22;59091;47.446;19.148;2023-07-24T01:57:35;24.66;63.62
71304;DHT22;59091;47.446;19.148;2023-07-24T02:00:01;24.73;63.40
71304;DHT22;59091;47.446;19.148;2023-07-24T02:02:26;24.72;63.52
71304;DHT22;59091;47.446;19.148;2023-07-24T02:04:52;24.71;63.57
71304;DHT22;59091;47.446;19.148;2023-07-24T02:07:17;24.68;63.51
71304;DHT22;59091;47.446;19.148;2023-07-24T02:09:43;24.71;63.37
71304;DHT22;59091;47.446;19.148;2023-07-24T02:12:08;24.72;63.40
71304;DHT22;59091;47.446;19.148;2023-07-24T02:14:33;24.72;63.23
71304;DHT22;59091;47.446;19.148;2023-07-24T02:16:59;24.66;63.44
71304;DHT22;59091;47.446;19.148;2023-07-24T02:19:24;24.68;63.30
71304;DHT22;59091;47.446;19.148;2023-07-24T02:21:50;24.73;63.27
71304;DHT22;59091;47.446;19.148;2023-07-24T02:24:15;24.71;63.22
71304;DHT22;59091;47.446;19.148;2023-07-24T02:26:41;24.69;63.37
71304;DHT22;59091;47.446;19.148;2023-07-24T02:29:06;24.71;63.23
71304;DHT22;59091;47.446;19.148;2023-07-24T02:31:31;24.71;63.36
71304;DHT22;59091;47.446;19.148;2023-07-24T02:33:57;24.76;63.20
71304;DHT22;59091;47.446;19.148;2023-07-24T02:36:22;24.76;63.41
71304;DHT22;59091;47.446;19.148;2023-07-24T02:38:48;24.68;63.42
71304;DHT22;59091;47.446;19.148;2023-07-24T02:41:13;24.73;63.10
71304;DHT22;59091;47.446;19.148;2023-07-24T02:43:38;24.72;63.30
71304;DHT22;59091;47.446;19.148;2023-07-24T02:46:04;24.72;63.20
71304;DHT22;59091;47.446;19.148;2023-07-24T02:48:29;24.71;63.30
71304;DHT22;59091;47.446;19.148;2023-07-24T02:50:55;24.68;63.48
71304;DHT22;59091;47.446;19.148;2023-07-24T02:53:20;24.65;63.46
71304;DHT22;59091;47.446;19.148;2023-07-24T02:55:46;24.68;63.23
71304;DHT22;59091;47.446;19.148;2023-07-24T02:58:12;24.73;63.22
71304;DHT22;59091;47.446;19.148;2023-07-24T03:00:38;24.75;63.31
71304;DHT22;59091;47.446;19.148;2023-07-24T03:03:04;24.71;63.57
71304;DHT22;59091;47.446;19.148;2023-07-24T03:05:30;24.71;63.42
71304;DHT22;59091;47.446;19.148;2023-07-24T03:07:55;24.69;63.52
71304;DHT22;59091;47.446;19.148;2023-07-24T03:10:22;24.65;63.63
71304;DHT22;59091;47.446;19.148;2023-07-24T03:12:47;24.58;63.92
71304;DHT22;59091;47.446;19.148;2023-07-24T03:15:13;24.59;64.04
71304;DHT22;59091;47.446;19.148;2023-07-24T03:17:38;24.48;64.23
71304;DHT22;59091;47.446;19.148;2023-07-24T03:20:14;24.51;63.84
71304;DHT22;59091;47.446;19.148;2023-07-24T03:22:40;24.49;64.65
71304;DHT22;59091;47.446;19.148;2023-07-24T03:25:06;24.51;64.89
71304;DHT22;59091;47.446;19.148;2023-07-24T03:27:31;24.54;65.26
71304;DHT22;59091;47.446;19.148;2023-07-24T03:29:57;24.59;65.96
71304;DHT22;59091;47.446;19.148;2023-07-24T03:32:22;24.66;66.16
71304;DHT22;59091;47.446;19.148;2023-07-24T03:34:48;24.56;65.39
71304;DHT22;59091;47.446;19.148;2023-07-24T03:37:13;24.61;64.76
71304;DHT22;59091;47.446;19.148;2023-07-24T03:39:38;24.62;64.51
71304;DHT22;59091;47.446;19.148;2023-07-24T03:42:04;24.56;64.44
71304;DHT22;59091;47.446;19.148;2023-07-24T03:44:29;24.59;64.31
71304;DHT22;59091;47.446;19.148;2023-07-24T03:46:55;24.58;64.29
71304;DHT22;59091;47.446;19.148;2023-07-24T03:49:20;24.61;64.22
71304;DHT22;59091;47.446;19.148;2023-07-24T03:51:47;24.61;64.23
71304;DHT22;59091;47.446;19.148;2023-07-24T03:54:13;24.62;64.01
71304;DHT22;59091;47.446;19.148;2023-07-24T03:56:38;24.68;63.95
71304;DHT22;59091;47.446;19.148;2023-07-24T03:59:05;24.66;64.09
71304;DHT22;59091;47.446;19.148;2023-07-24T04:01:30;24.63;64.07
71304;DHT22;59091;47.446;19.148;2023-07-24T04:03:58;24.65;64.18
71304;DHT22;59091;47.446;19.148;2023-07-24T04:06:23;24.66;64.06
71304;DHT22;59091;47.446;19.148;2023-07-24T04:08:49;24.69;64.16
71304;DHT22;59091;47.446;19.148;2023-07-24T04:11:14;24.66;64.17
71304;DHT22;59091;47.446;19.148;2023-07-24T04:13:40;24.75;64.30
71304;DHT22;59091;47.446;19.148;2023-07-24T04:16:05;24.73;64.72
71304;DHT22;59091;47.446;19.148;2023-07-24T04:18:30;24.63;65.41
71304;DHT22;59091;47.446;19.148;2023-07-24T04:20:56;24.68;65.51
71304;DHT22;59091;47.446;19.148;2023-07-24T04:23:22;24.69;65.53
71304;DHT22;59091;47.446;19.148;2023-07-24T04:25:49;24.77;65.27
71304;DHT22;59091;47.446;19.148;2023-07-24T04:28:15;24.76;65.22
71304;DHT22;59091;47.446;19.148;2023-07-24T04:30:40;24.83;65.05
71304;DHT22;59091;47.446;19.148;2023-07-24T04:33:06;24.87;64.90
71304;DHT22;59091;47.446;19.148;2023-07-24T04:35:31;24.95;64.98
71304;DHT22;59091;47.446;19.148;2023-07-24T04:37:57;24.93;64.90
71304;DHT22;59091;47.446;19.148;2023-07-24T04:40:23;24.92;65.34
71304;DHT22;59091;47.446;19.148;2023-07-24T04:42:48;25.04;64.61
71304;DHT22;59091;47.446;19.148;2023-07-24T04:45:14;25.14;64.30
71304;DHT22;59091;47.446;19.148;2023-07-24T04:47:39;25.20;64.25
71304;DHT22;59091;47.446;19.148;2023-07-24T04:50:05;25.12;63.87
71304;DHT22;59091;47.446;19.148;2023-07-24T04:52:31;25.34;63.42
71304;DHT22;59091;47.446;19.148;2023-07-24T04:54:56;25.43;63.50
71304;DHT22;59091;47.446;19.148;2023-07-24T04:57:22;25.53;63.37
71304;DHT22;59091;47.446;19.148;2023-07-24T04:59:47;25.64;62.89
71304;DHT22;59091;47.446;19.148;2023-07-24T05:02:13;25.80;63.08
71304;DHT22;59091;47.446;19.148;2023-07-24T05:04:38;25.89;63.67
71304;DHT22;59091;47.446;19.148;2023-07-24T05:07:03;25.99;63.55
71304;DHT22;59091;47.446;19.148;2023-07-24T05:09:29;26.02;63.67
71304;DHT22;59091;47.446;19.148;2023-07-24T05:11:54;26.14;63.85
71304;DHT22;59091;47.446;19.148;2023-07-24T05:14:20;26.33;62.54
71304;DHT22;59091;47.446;19.148;2023-07-24T05:16:45;26.43;61.79
71304;DHT22;59091;47.446;19.148;2023-07-24T05:19:10;26.53;61.38
71304;DHT22;59091;47.446;19.148;2023-07-24T05:21:36;26.60;61.04
71304;DHT22;59091;47.446;19.148;2023-07-24T05:24:01;26.57;61.21
71304;DHT22;59091;47.446;19.148;2023-07-24T05:26:27;26.66;60.82
71304;DHT22;59091;47.446;19.148;2023-07-24T05:28:52;26.75;60.48
71304;DHT22;59091;47.446;19.148;2023-07-24T05:31:18;26.88;60.20
71304;DHT22;59091;47.446;19.148;2023-07-24T05:33:44;26.96;60.37
71304;DHT22;59091;47.446;19.148;2023-07-24T05:36:09;27.03;60.29
71304;DHT22;59091;47.446;19.148;2023-07-24T05:38:35;27.10;60.17
71304;DHT22;59091;47.446;19.148;2023-07-24T05:41:02;27.24;59.43
71304;DHT22;59091;47.446;19.148;2023-07-24T05:43:29;27.27;58.76
71304;DHT22;59091;47.446;19.148;2023-07-24T05:45:56;27.17;59.42
71304;DHT22;59091;47.446;19.148;2023-07-24T05:48:21;27.23;59.17
71304;DHT22;59091;47.446;19.148;2023-07-24T05:50:47;27.27;58.98
71304;DHT22;59091;47.446;19.148;2023-07-24T05:53:13;27.37;59.33
71304;DHT22;59091;47.446;19.148;2023-07-24T05:55:39;27.45;58.66
71304;DHT22;59091;47.446;19.148;2023-07-24T05:58:04;27.65;58.13
71304;DHT22;59091;47.446;19.148;2023-07-24T06:00:30;27.84;58.02
71304;DHT22;59091;47.446;19.148;2023-07-24T06:02:55;27.96;58.03
71304;DHT22;59091;47.446;19.148;2023-07-24T06:05:21;28.14;57.08
71304;DHT22;59091;47.446;19.148;2023-07-24T06:07:47;28.26;57.69
71304;DHT22;59091;47.446;19.148;2023-07-24T06:10:12;28.35;57.19
71304;DHT22;59091;47.446;19.148;2023-07-24T06:12:38;28.40;57.53
71304;DHT22;59091;47.446;19.148;2023-07-24T06:15:04;28.47;57.08
71304;DHT22;59091;47.446;19.148;2023-07-24T06:17:30;28.57;56.88
71304;DHT22;59091;47.446;19.148;2023-07-24T06:19:56;28.56;57.04
71304;DHT22;59091;47.446;19.148;2023-07-24T06:22:22;28.77;56.31
71304;DHT22;59091;47.446;19.148;2023-07-24T06:24:47;28.99;55.95
71304;DHT22;59091;47.446;19.148;2023-07-24T06:27:13;28.99;57.51
71304;DHT22;59091;47.446;19.148;2023-07-24T06:29:38;29.16;56.08
71304;DHT22;59091;47.446;19.148;2023-07-24T06:32:04;29.33;55.39
71304;DHT22;59091;47.446;19.148;2023-07-24T06:34:30;29.43;56.25
71304;DHT22;59091;47.446;19.148;2023-07-24T06:36:55;29.59;55.52
71304;DHT22;59091;47.446;19.148;2023-07-24T06:39:21;29.62;55.77
71304;DHT22;59091;47.446;19.148;2023-07-24T06:41:46;29.59;55.88
71304;DHT22;59091;47.446;19.148;2023-07-24T06:44:12;29.59;55.73
71304;DHT22;59091;47.446;19.148;2023-07-24T06:46:37;29.81;55.67
71304;DHT22;59091;47.446;19.148;2023-07-24T06:49:03;30.03;54.34
71304;DHT22;59091;47.446;19.148;2023-07-24T06:51:28;30.18;54.63
71304;DHT22;59091;47.446;19.148;2023-07-24T06:53:54;30.32;53.57
71304;DHT22;59091;47.446;19.148;2023-07-24T06:56:19;30.35;54.20
71304;DHT22;59091;47.446;19.148;2023-07-24T06:58:45;30.58;54.09
71304;DHT22;59091;47.446;19.148;2023-07-24T07:01:10;30.76;53.58
71304;DHT22;59091;47.446;19.148;2023-07-24T07:03:36;30.90;53.23
71304;DHT22;59091;47.446;19.148;2023-07-24T07:06:01;31.03;54.15
71304;DHT22;59091;47.446;19.148;2023-07-24T07:08:28;31.13;52.06
71304;DHT22;59091;47.446;19.148;2023-07-24T07:10:56;31.08;52.63
71304;DHT22;59091;47.446;19.148;2023-07-24T07:13:21;31.18;53.60
71304;DHT22;59091;47.446;19.148;2023-07-24T07:15:47;31.43;52.53
71304;DHT22;59091;47.446;19.148;2023-07-24T07:18:12;31.44;52.45
71304;DHT22;59091;47.446;19.148;2023-07-24T07:20:37;31.70;51.65
71304;DHT22;59091;47.446;19.148;2023-07-24T07:23:03;31.92;51.69
71304;DHT22;59091;47.446;19.148;2023-07-24T07:25:28;32.28;50.57
71304;DHT22;59091;47.446;19.148;2023-07-24T07:27:53;32.35;49.09
71304;DHT22;59091;47.446;19.148;2023-07-24T07:30:19;32.55;49.63
71304;DHT22;59091;47.446;19.148;2023-07-24T07:32:44;32.76;48.75
71304;DHT22;59091;47.446;19.148;2023-07-24T07:35:10;33.10;47.73
71304;DHT22;59091;47.446;19.148;2023-07-24T07:37:35;33.33;47.49
71304;DHT22;59091;47.446;19.148;2023-07-24T07:40:01;33.46;47.29
71304;DHT22;59091;47.446;19.148;2023-07-24T07:42:26;33.58;47.31
71304;DHT22;59091;47.446;19.148;2023-07-24T07:44:51;33.88;46.76
71304;DHT22;59091;47.446;19.148;2023-07-24T07:47:17;33.92;47.33
71304;DHT22;59091;47.446;19.148;2023-07-24T07:49:50;33.71;46.39
71304;DHT22;59091;47.446;19.148;2023-07-24T07:52:15;34.09;46.03
71304;DHT22;59091;47.446;19.148;2023-07-24T07:54:48;34.45;44.77
71304;DHT22;59091;47.446;19.148;2023-07-24T07:57:14;34.60;44.85
71304;DHT22;59091;47.446;19.148;2023-07-24T07:59:39;34.60;45.21
71304;DHT22;59091;47.446;19.148;2023-07-24T08:02:06;34.53;45.59
71304;DHT22;59091;47.446;19.148;2023-07-24T08:04:31;34.69;45.17
71304;DHT22;59091;47.446;19.148;2023-07-24T08:06:56;34.76;44.04
71304;DHT22;59091;47.446;19.148;2023-07-24T08:09:22;34.99;44.55
71304;DHT22;59091;47.446;19.148;2023-07-24T08:11:49;35.07;44.58
71304;DHT22;59091;47.446;19.148;2023-07-24T08:14:14;35.38;43.14
71304;DHT22;59091;47.446;19.148;2023-07-24T08:16:40;35.64;43.56
71304;DHT22;59091;47.446;19.148;2023-07-24T08:19:05;35.77;42.52
71304;DHT22;59091;47.446;19.148;2023-07-24T08:21:31;35.62;42.00
71304;DHT22;59091;47.446;19.148;2023-07-24T08:23:56;35.55;42.37
71304;DHT22;59091;47.446;19.148;2023-07-24T08:26:23;35.51;43.11
71304;DHT22;59091;47.446;19.148;2023-07-24T08:28:51;35.74;42.38
71304;DHT22;59091;47.446;19.148;2023-07-24T08:31:17;35.93;41.83
71304;DHT22;59091;47.446;19.148;2023-07-24T08:33:42;35.81;39.50
71304;DHT22;59091;47.446;19.148;2023-07-24T08:36:08;35.85;40.79
71304;DHT22;59091;47.446;19.148;2023-07-24T08:38:34;35.86;40.64
71304;DHT22;59091;47.446;19.148;2023-07-24T08:41:04;36.12;39.97
71304;DHT22;59091;47.446;19.148;2023-07-24T08:43:32;36.43;39.56
71304;DHT22;59091;47.446;19.148;2023-07-24T08:45:59;36.53;39.00
71304;DHT22;59091;47.446;19.148;2023-07-24T08:48:27;36.30;38.05
71304;DHT22;59091;47.446;19.148;2023-07-24T08:50:54;36.30;37.71
71304;DHT22;59091;47.446;19.148;2023-07-24T08:53:21;36.42;40.06
71304;DHT22;59091;47.446;19.148;2023-07-24T08:55:48;36.56;38.74
71304;DHT22;59091;47.446;19.148;2023-07-24T08:58:14;36.80;38.14
71304;DHT22;59091;47.446;19.148;2023-07-24T09:00:40;37.13;36.40
71304;DHT22;59091;47.446;19.148;2023-07-24T09:03:05;37.22;36.42
71304;DHT22;59091;47.446;19.148;2023-07-24T09:05:31;37.41;36.74
71304;DHT22;59091;47.446;19.148;2023-07-24T09:07:56;37.55;36.34
71304;DHT22;59091;47.446;19.148;2023-07-24T09:10:26;37.42;37.03
71304;DHT22;59091;47.446;19.148;2023-07-24T09:12:52;37.52;36.04
71304;DHT22;59091;47.446;19.148;2023-07-24T09:15:17;37.75;35.36
71304;DHT22;59091;47.446;19.148;2023-07-24T09:17:53;37.78;35.63
71304;DHT22;59091;47.446;19.148;2023-07-24T09:20:19;37.82;35.67
71304;DHT22;59091;47.446;19.148;2023-07-24T09:22:54;37.37;35.73
71304;DHT22;59091;47.446;19.148;2023-07-24T09:25:32;37.10;36.08
71304;DHT22;59091;47.446;19.148;2023-07-24T09:27:58;37.04;36.02
71304;DHT22;59091;47.446;19.148;2023-07-24T09:30:24;36.97;36.15
71304;DHT22;59091;47.446;19.148;2023-07-24T09:32:53;36.77;38.13
71304;DHT22;59091;47.446;19.148;2023-07-24T09:35:19;36.63;37.55
71304;DHT22;59091;47.446;19.148;2023-07-24T09:37:46;36.71;36.34
71304;DHT22;59091;47.446;19.148;2023-07-24T09:40:13;36.59;36.86
71304;DHT22;59091;47.446;19.148;2023-07-24T09:42:39;36.57;35.68
71304;DHT22;59091;47.446;19.148;2023-07-24T09:45:05;36.60;36.25
71304;DHT22;59091;47.446;19.148;2023-07-24T09:47:31;36.53;35.30
71304;DHT22;59091;47.446;19.148;2023-07-24T09:49:57;36.52;34.69
71304;DHT22;59091;47.446;19.148;2023-07-24T09:52:27;36.33;35.41
71304;DHT22;59091;47.446;19.148;2023-07-24T09:55:30;36.02;34.72
71304;DHT22;59091;47.446;19.148;2023-07-24T09:57:54;35.88;35.11
71304;DHT22;59091;47.446;19.148;2023-07-24T10:00:20;35.81;34.56
71304;DHT22;59091;47.446;19.148;2023-07-24T10:02:47;35.74;34.81
71304;DHT22;59091;47.446;19.148;2023-07-24T10:05:13;35.82;34.62
71304;DHT22;59091;47.446;19.148;2023-07-24T10:07:40;35.71;34.68
71304;DHT22;59091;47.446;19.148;2023-07-24T10:10:06;35.75;34.58
71304;DHT22;59091;47.446;19.148;2023-07-24T10:12:32;35.82;36.76
71304;DHT22;59091;47.446;19.148;2023-07-24T10:14:58;35.82;35.59
71304;DHT22;59091;47.446;19.148;2023-07-24T10:17:38;35.81;35.10
71304;DHT22;59091;47.446;19.148;2023-07-24T10:20:09;35.99;34.81
71304;DHT22;59091;47.446;19.148;2023-07-24T10:22:35;36.13;35.04
71304;DHT22;59091;47.446;19.148;2023-07-24T10:25:03;36.12;35.16
71304;DHT22;59091;47.446;19.148;2023-07-24T10:27:28;36.30;33.56
71304;DHT22;59091;47.446;19.148;2023-07-24T10:30:04;36.35;34.62
71304;DHT22;59091;47.446;19.148;2023-07-24T10:32:32;36.19;33.94
71304;DHT22;59091;47.446;19.148;2023-07-24T10:35:00;36.30;33.57
71304;DHT22;59091;47.446;19.148;2023-07-24T10:37:35;36.08;34.34
71304;DHT22;59091;47.446;19.148;2023-07-24T10:40:02;35.92;33.55
71304;DHT22;59091;47.446;19.148;2023-07-24T10:42:29;35.88;34.53
71304;DHT22;59091;47.446;19.148;2023-07-24T10:45:06;36.03;34.17
71304;DHT22;59091;47.446;19.148;2023-07-24T10:47:32;35.86;35.99
71304;DHT22;59091;47.446;19.148;2023-07-24T10:49:58;36.08;35.39
71304;DHT22;59091;47.446;19.148;2023-07-24T10:52:31;36.13;34.72
71304;DHT22;59091;47.446;19.148;2023-07-24T10:55:00;36.08;34.87
71304;DHT22;59091;47.446;19.148;2023-07-24T10:57:26;36.06;35.11
71304;DHT22;59091;47.446;19.148;2023-07-24T10:59:52;36.22;34.71
71304;DHT22;59091;47.446;19.148;2023-07-24T11:02:18;36.06;34.30
71304;DHT22;59091;47.446;19.148;2023-07-24T11:04:43;36.09;34.81
71304;DHT22;59091;47.446;19.148;2023-07-24T11:07:08;36.09;35.82
71304;DHT22;59091;47.446;19.148;2023-07-24T11:09:35;36.29;35.36
71304;DHT22;59091;47.446;19.148;2023-07-24T11:12:12;36.25;33.56
71304;DHT22;59091;47.446;19.148;2023-07-24T11:14:52;36.26;34.82
71304;DHT22;59091;47.446;19.148;2023-07-24T11:17:21;36.37;34.35
71304;DHT22;59091;47.446;19.148;2023-07-24T11:19:47;36.52;33.90
71304;DHT22;59091;47.446;19.148;2023-07-24T11:22:12;36.73;33.46
71304;DHT22;59091;47.446;19.148;2023-07-24T11:24:47;37.00;32.97
71304;DHT22;59091;47.446;19.148;2023-07-24T11:27:14;37.17;32.60
71304;DHT22;59091;47.446;19.148;2023-07-24T11:29:47;37.15;32.38
71304;DHT22;59091;47.446;19.148;2023-07-24T11:32:17;37.46;32.38
71304;DHT22;59091;47.446;19.148;2023-07-24T11:34:43;37.59;33.69
71304;DHT22;59091;47.446;19.148;2023-07-24T11:37:08;37.13;33.19
71304;DHT22;59091;47.446;19.148;2023-07-24T11:39:34;37.21;33.49
71304;DHT22;59091;47.446;19.148;2023-07-24T11:42:00;37.27;32.54
71304;DHT22;59091;47.446;19.148;2023-07-24T11:44:29;37.39;32.56
71304;DHT22;59091;47.446;19.148;2023-07-24T11:47:04;37.38;31.89
71304;DHT22;59091;47.446;19.148;2023-07-24T11:49:31;37.11;33.18
71304;DHT22;59091;47.446;19.148;2023-07-24T11:52:14;37.27;32.40
71304;DHT22;59091;47.446;19.148;2023-07-24T11:54:40;37.22;31.36
71304;DHT22;59091;47.446;19.148;2023-07-24T11:57:15;37.28;32.21
71304;DHT22;59091;47.446;19.148;2023-07-24T11:59:41;37.34;32.29
71304;DHT22;59091;47.446;19.148;2023-07-24T12:02:10;37.30;32.70
71304;DHT22;59091;47.446;19.148;2023-07-24T12:04:37;37.20;32.22
71304;DHT22;59091;47.446;19.148;2023-07-24T12:07:07;37.30;32.93
71304;DHT22;59091;47.446;19.148;2023-07-24T12:09:33;37.11;30.83
71304;DHT22;59091;47.446;19.148;2023-07-24T12:11:59;37.13;31.63
71304;DHT22;59091;47.446;19.148;2023-07-24T12:14:24;37.17;31.09
71304;DHT22;59091;47.446;19.148;2023-07-24T12:17:02;37.01;32.77
71304;DHT22;59091;47.446;19.148;2023-07-24T12:19:27;37.08;31.61
71304;DHT22;59091;47.446;19.148;2023-07-24T12:21:53;37.31;31.14
71304;DHT22;59091;47.446;19.148;2023-07-24T12:24:19;37.30;31.52
71304;DHT22;59091;47.446;19.148;2023-07-24T12:26:44;37.27;31.06
71304;DHT22;59091;47.446;19.148;2023-07-24T12:29:09;37.32;31.19
71304;DHT22;59091;47.446;19.148;2023-07-24T12:31:35;37.46;30.20
71304;DHT22;59091;47.446;19.148;2023-07-24T12:34:01;37.49;31.75
71304;DHT22;59091;47.446;19.148;2023-07-24T12:36:26;37.28;30.75
71304;DHT22;59091;47.446;19.148;2023-07-24T12:38:52;37.32;30.89
71304;DHT22;59091;47.446;19.148;2023-07-24T12:41:17;37.43;32.39
71304;DHT22;59091;47.446;19.148;2023-07-24T12:43:44;37.30;31.68
71304;DHT22;59091;47.446;19.148;2023-07-24T12:46:09;37.30;30.72
71304;DHT22;59091;47.446;19.148;2023-07-24T12:48:35;37.43;31.66
71304;DHT22;59091;47.446;19.148;2023-07-24T12:51:01;37.45;31.60
71304;DHT22;59091;47.446;19.148;2023-07-24T12:53:27;37.49;31.80
71304;DHT22;59091;47.446;19.148;2023-07-24T12:55:52;37.68;31.82
71304;DHT22;59091;47.446;19.148;2023-07-24T12:58:18;37.82;31.40
71304;DHT22;59091;47.446;19.148;2023-07-24T13:00:43;37.78;31.78
71304;DHT22;59091;47.446;19.148;2023-07-24T13:03:09;37.86;32.45
71304;DHT22;59091;47.446;19.148;2023-07-24T13:05:34;37.83;32.15
71304;DHT22;59091;47.446;19.148;2023-07-24T13:08:00;37.85;33.07
71304;DHT22;59091;47.446;19.148;2023-07-24T13:10:25;37.99;32.71
71304;DHT22;59091;47.446;19.148;2023-07-24T13:12:50;37.98;32.46
71304;DHT22;59091;47.446;19.148;2023-07-24T13:15:16;38.09;31.85
71304;DHT22;59091;47.446;19.148;2023-07-24T13:17:41;38.03;32.46
71304;DHT22;59091;47.446;19.148;2023-07-24T13:20:07;37.69;32.99
71304;DHT22;59091;47.446;19.148;2023-07-24T13:22:32;37.83;32.76
71304;DHT22;59091;47.446;19.148;2023-07-24T13:24:58;37.90;33.46
71304;DHT22;59091;47.446;19.148;2023-07-24T13:27:23;37.64;33.94
71304;DHT22;59091;47.446;19.148;2023-07-24T13:29:49;37.69;33.57
71304;DHT22;59091;47.446;19.148;2023-07-24T13:32:14;37.76;33.29
71304;DHT22;59091;47.446;19.148;2023-07-24T13:34:41;37.86;32.75
71304;DHT22;59091;47.446;19.148;2023-07-24T13:37:06;37.78;32.40
71304;DHT22;59091;47.446;19.148;2023-07-24T13:39:32;37.57;33.03
71304;DHT22;59091;47.446;19.148;2023-07-24T13:41:59;37.42;32.14
71304;DHT22;59091;47.446;19.148;2023-07-24T13:44:24;37.66;32.04
71304;DHT22;59091;47.446;19.148;2023-07-24T13:46:50;37.71;32.49
71304;DHT22;59091;47.446;19.148;2023-07-24T13:49:15;37.76;33.16
71304;DHT22;59091;47.446;19.148;2023-07-24T13:51:40;37.78;31.86
71304;DHT22;59091;47.446;19.148;2023-07-24T13:54:06;37.75;31.78
71304;DHT22;59091;47.446;19.148;2023-07-24T13:56:31;37.69;31.60
71304;DHT22;59091;47.446;19.148;2023-07-24T13:59:00;37.55;31.96
71304;DHT22;59091;47.446;19.148;2023-07-24T14:01:25;37.51;32.36
71304;DHT22;59091;47.446;19.148;2023-07-24T14:03:51;37.49;31.68
71304;DHT22;59091;47.446;19.148;2023-07-24T14:06:16;37.65;32.19
71304;DHT22;59091;47.446;19.148;2023-07-24T14:08:41;37.39;30.88
71304;DHT22;59091;47.446;19.148;2023-07-24T14:11:07;37.61;30.42
71304;DHT22;59091;47.446;19.148;2023-07-24T14:13:32;37.49;30.54
71304;DHT22;59091;47.446;19.148;2023-07-24T14:15:58;37.18;31.24
71304;DHT22;59091;47.446;19.148;2023-07-24T14:18:23;36.86;30.70
71304;DHT22;59091;47.446;19.148;2023-07-24T14:20:49;37.10;30.91
71304;DHT22;59091;47.446;19.148;2023-07-24T14:23:14;37.01;30.79
71304;DHT22;59091;47.446;19.148;2023-07-24T14:25:39;36.83;30.78
71304;DHT22;59091;47.446;19.148;2023-07-24T14:28:05;36.80;31.04
71304;DHT22;59091;47.446;19.148;2023-07-24T14:30:30;36.84;30.79
71304;DHT22;59091;47.446;19.148;2023-07-24T14:32:56;36.71;30.51
71304;DHT22;59091;47.446;19.148;2023-07-24T14:35:21;36.69;30.44
71304;DHT22;59091;47.446;19.148;2023-07-24T14:37:47;36.56;31.34
71304;DHT22;59091;47.446;19.148;2023-07-24T14:40:12;36.09;30.64
71304;DHT22;59091;47.446;19.148;2023-07-24T14:42:38;36.06;30.98
71304;DHT22;59091;47.446;19.148;2023-07-24T14:45:03;35.98;31.50
71304;DHT22;59091;47.446;19.148;2023-07-24T14:47:29;35.86;31.13
71304;DHT22;59091;47.446;19.148;2023-07-24T14:49:57;35.96;31.00
71304;DHT22;59091;47.446;19.148;2023-07-24T14:52:22;35.72;30.61
71304;DHT22;59091;47.446;19.148;2023-07-24T14:54:47;35.64;31.27
71304;DHT22;59091;47.446;19.148;2023-07-24T14:57:13;35.62;31.00
71304;DHT22;59091;47.446;19.148;2023-07-24T14:59:38;35.61;32.11
71304;DHT22;59091;47.446;19.148;2023-07-24T15:02:04;35.59;31.53
71304;DHT22;59091;47.446;19.148;2023-07-24T15:04:29;35.65;31.56
71304;DHT22;59091;47.446;19.148;2023-07-24T15:06:55;35.52;30.67
71304;DHT22;59091;47.446;19.148;2023-07-24T15:09:20;35.57;31.05
71304;DHT22;59091;47.446;19.148;2023-07-24T15:11:45;35.66;31.04
71304;DHT22;59091;47.446;19.148;2023-07-24T15:14:11;35.58;31.32